Time;durP1;ratioP1;P1;durP2;ratioP2;P2;SDS_P1;SDS_P2;PMS_P1;PMS_P2;Temp;Humidity;BMP_temperature;BMP_pressure;BME280_temperature;BME280_humidity;BME280_pressure;Samples;Min_cycle;Max_cycle;Signal;HPM_P1;HPM_P2
2023/05/26 10:25:41;;;;;;;2.67;1.00;;;;;;;26.81;47.09;98925.28;5131854;27;20557;-85
2023/05/26 10:28:38;;;;;;;2.35;1.23;;;;;;;27.06;46.29;98929.31;5131709;27;20167;-86
2023/05/26 10:31:04;;;;;;;2.17;0.95;;;;;;;27.17;47.17;98923.44;5131632;28;20219;-84
2023/05/26 10:33:43;;;;;;;4.88;0.95;;;;;;;27.49;44.49;98922.09;5131765;27;20195;-85
2023/05/26 10:36:18;;;;;;;2.58;0.70;;;;;;;27.66;44.94;98920.00;5131233;27;20209;-85
2023/05/26 10:38:52;;;;;;;3.42;1.05;;;;;;;27.82;46.50;98922.41;5131748;27;20175;-86
2023/05/26 10:41:38;;;;;;;2.92;1.00;;;;;;;28.05;44.12;98912.25;5131121;27;20223;-86
2023/05/26 10:44:04;;;;;;;2.75;1.25;;;;;;;28.28;44.02;98909.25;5131354;27;20174;-86
2023/05/26 10:46:46;;;;;;;3.85;0.88;;;;;;;28.57;39.53;98904.44;5131341;27;20171;-86
2023/05/26 10:49:23;;;;;;;1.48;0.80;;;;;;;28.67;38.88;98908.69;5130025;27;20175;-85
2023/05/26 10:51:51;;;;;;;2.13;0.90;;;;;;;28.75;38.85;98898.53;5131160;27;20179;-87
2023/05/26 10:54:22;;;;;;;1.80;0.98;;;;;;;28.82;35.73;98887.78;5130829;27;20188;-85
2023/05/26 10:56:52;;;;;;;2.20;1.23;;;;;;;28.96;38.54;98882.19;5129889;28;20175;-86
2023/05/26 10:59:32;;;;;;;1.98;0.70;;;;;;;29.04;37.00;98886.56;5131142;27;20155;-87
2023/05/26 11:02:05;;;;;;;2.47;0.88;;;;;;;29.04;35.30;98884.72;5131174;27;20167;-87
2023/05/26 11:04:46;;;;;;;2.05;0.80;;;;;;;29.04;37.02;98870.38;5130996;27;20152;-87
2023/05/26 11:07:32;;;;;;;2.20;0.80;;;;;;;28.92;38.83;98875.56;5129686;27;20194;-87
2023/05/26 11:10:06;;;;;;;2.67;0.90;;;;;;;29.00;37.29;98877.25;5130881;27;20171;-87
2023/05/26 11:12:57;;;;;;;2.53;0.93;;;;;;;28.80;37.40;98881.75;5130446;27;20178;-89
2023/05/26 11:15:29;;;;;;;2.63;1.15;;;;;;;28.90;38.78;98877.63;5130837;27;20256;-87
2023/05/26 11:18:08;;;;;;;7.03;1.00;;;;;;;29.01;37.99;98878.91;5129306;27;20558;-87
2023/05/26 11:20:36;;;;;;;5.30;0.85;;;;;;;29.09;39.46;98879.53;5129550;28;20159;-87
2023/05/26 11:23:03;;;;;;;2.42;0.75;;;;;;;29.28;37.20;98874.41;5130478;27;20206;-87
2023/05/26 11:25:32;;;;;;;2.17;0.70;;;;;;;29.38;38.94;98870.25;5121272;27;20176;-88
2023/05/26 11:28:20;;;;;;;1.90;0.80;;;;;;;29.52;38.56;98871.09;5116344;28;20225;-87
2023/05/26 11:30:48;;;;;;;2.08;1.00;;;;;;;29.56;39.65;98856.94;5110972;28;20273;-91
2023/05/26 11:33:17;;;;;;;2.88;0.85;;;;;;;29.78;38.72;98852.16;5103018;28;20634;-90
2023/05/26 11:35:42;;;;;;;2.03;0.80;;;;;;;29.99;38.65;98834.91;5110714;28;20190;-89
2023/05/26 11:38:17;;;;;;;1.80;0.90;;;;;;;30.10;38.08;98837.78;5115157;28;20172;-90
2023/05/26 11:40:56;;;;;;;2.13;0.98;;;;;;;30.07;38.14;98837.38;5116433;28;20563;-90
2023/05/26 11:44:00;;;;;;;;;;;;;;;;;;;;;
2023/05/26 11:47:00;;;;;;;4.00;0.80;;;;;;;30.22;38.66;98829.84;5111090;28;20197;-90
2023/05/26 11:49:27;;;;;;;1.92;0.95;;;;;;;30.50;34.73;98826.88;5116049;28;20180;-91
2023/05/26 11:51:53;;;;;;;1.80;0.82;;;;;;;30.41;35.71;98820.84;5117065;28;20640;-90
2023/05/26 11:54:28;;;;;;;3.10;0.90;;;;;;;30.63;37.13;98822.22;5116018;28;20195;-90
2023/05/26 11:56:56;;;;;;;2.22;0.93;;;;;;;30.72;35.87;98820.91;5115144;28;20626;-89
2023/05/26 11:59:24;;;;;;;6.25;0.82;;;;;;;30.76;35.80;98807.78;5115119;28;20172;-89
2023/05/26 12:01:50;;;;;;;3.30;0.98;;;;;;;30.91;35.32;98820.00;5114960;27;20175;-89
2023/05/26 12:04:36;;;;;;;2.55;0.98;;;;;;;31.09;35.23;98811.13;5114938;28;20628;-90
2023/05/26 12:07:04;;;;;;;2.35;1.02;;;;;;;31.20;35.72;98815.00;5114980;28;20566;-90
2023/05/26 12:09:30;;;;;;;2.17;1.20;;;;;;;31.27;34.36;98807.63;5116110;28;20168;-90
2023/05/26 12:12:11;;;;;;;2.13;0.80;;;;;;;31.28;35.06;98793.06;5115860;28;20236;-91
2023/05/26 12:14:47;;;;;;;2.65;0.95;;;;;;;31.46;34.09;98787.72;5115767;28;20657;-90
2023/05/26 12:17:14;;;;;;;2.85;1.05;;;;;;;31.54;35.45;98792.84;5116275;28;20653;-90
2023/05/26 12:19:49;;;;;;;2.13;0.90;;;;;;;31.60;32.60;98794.69;5115624;28;20199;-90
2023/05/26 12:22:37;;;;;;;2.08;1.15;;;;;;;31.58;33.60;98794.06;5116226;28;20667;-90
2023/05/26 12:25:16;;;;;;;;;;;;;;;;;;;;;
2023/05/26 12:27:42;;;;;;;1.58;0.80;;;;;;;31.61;32.98;98777.34;5116049;28;20624;-90
2023/05/26 12:30:33;;;;;;;1.90;0.63;;;;;;;31.63;34.68;98776.06;5115402;28;20262;-91
2023/05/26 12:33:15;;;;;;;;;;;;;;;;;;;;;
2023/05/26 12:35:50;;;;;;;3.55;0.90;;;;;;;31.45;33.86;98777.88;5116016;28;20158;-90
2023/05/26 12:38:22;;;;;;;3.75;1.00;;;;;;;31.46;33.64;98777.72;5113695;28;20262;-90
2023/05/26 12:40:55;;;;;;;1.85;0.90;;;;;;;31.52;34.03;98776.84;5115582;27;20167;-90
2023/05/26 12:43:21;;;;;;;2.22;1.23;;;;;;;31.55;32.30;98773.66;5114247;28;20195;-89
2023/05/26 12:45:47;;;;;;;3.63;1.05;;;;;;;31.33;34.25;98774.25;5115097;28;20249;-89
2023/05/26 12:48:12;;;;;;;2.15;0.80;;;;;;;31.39;34.44;98767.97;5114999;28;20613;-89
2023/05/26 12:50:38;;;;;;;1.60;0.85;;;;;;;31.17;34.05;98758.56;5114964;28;20183;-89
2023/05/26 12:53:04;;;;;;;2.63;1.00;;;;;;;31.52;32.95;98759.75;5114805;28;20256;-90
2023/05/26 12:55:29;;;;;;;1.63;1.00;;;;;;;31.75;33.68;98753.66;5115173;28;20263;-89
2023/05/26 12:57:55;;;;;;;1.38;0.70;;;;;;;32.07;34.07;98742.47;5113892;28;20245;-90
2023/05/26 13:00:20;;;;;;;3.03;0.90;;;;;;;32.02;32.71;98742.31;5115187;28;20586;-89
2023/05/26 13:02:46;;;;;;;2.45;0.60;;;;;;;32.00;33.58;98730.84;5115050;28;20171;-90
2023/05/26 13:05:14;;;;;;;2.75;0.70;;;;;;;32.18;32.63;98733.56;5113690;28;20610;-90
2023/05/26 13:07:39;;;;;;;1.98;0.80;;;;;;;32.31;33.33;98739.88;5113693;28;20241;-90
2023/05/26 13:10:07;;;;;;;5.00;0.88;;;;;;;32.26;34.39;98737.03;5113945;28;20171;-90
2023/05/26 13:12:33;;;;;;;2.05;1.00;;;;;;;32.20;32.85;98750.44;5114757;27;20168;-89
2023/05/26 13:15:16;;;;;;;;;;;;;;;;;;;;;
2023/05/26 13:17:47;;;;;;;2.20;0.98;;;;;;;31.41;34.29;98763.16;5094241;28;20642;-90
2023/05/26 13:20:15;;;;;;;1.48;0.77;;;;;;;30.90;34.69;98764.16;5093080;28;20176;-89
2023/05/26 13:22:44;;;;;;;3.78;0.80;;;;;;;30.67;34.66;98763.91;5092908;28;20607;-89
2023/05/26 13:25:11;;;;;;;2.33;1.00;;;;;;;30.25;35.02;98773.47;5093880;28;20206;-88
2023/05/26 13:27:37;;;;;;;3.17;1.30;;;;;;;30.00;39.75;98804.97;5093231;28;20267;-90
2023/05/26 13:30:05;;;;;;;4.38;1.75;;;;;;;29.70;42.40;98810.00;5093138;28;20263;-93
2023/05/26 13:32:31;;;;;;;4.30;1.38;;;;;;;29.34;42.51;98814.16;5105617;28;20188;-95
2023/05/26 13:58:28;;;;;;;3.27;1.77;;;;;;;27.10;54.50;98838.28;5111550;28;20217;-89
2023/05/26 14:00:54;;;;;;;6.13;1.57;;;;;;;26.92;54.59;98841.41;5114374;28;20171;-89
2023/05/26 14:03:20;;;;;;;5.23;2.13;;;;;;;26.69;53.67;98835.34;5112793;28;20179;-89
2023/05/26 14:05:45;;;;;;;3.07;1.60;;;;;;;26.42;54.57;98826.13;5114228;28;20191;-90
2023/05/26 14:08:11;;;;;;;4.43;1.83;;;;;;;26.19;54.45;98817.38;5113685;28;20168;-89
2023/05/26 14:10:36;;;;;;;3.90;1.97;;;;;;;25.99;54.32;98818.94;5113927;28;20624;-88
2023/05/26 14:13:02;;;;;;;4.50;1.87;;;;;;;25.81;54.68;98818.50;5113572;28;20195;-88
2023/05/26 14:15:30;;;;;;;4.57;2.03;;;;;;;25.68;56.31;98805.72;5113632;28;20230;-89
2023/05/26 14:17:56;;;;;;;3.27;1.90;;;;;;;25.49;56.52;98803.56;5113587;28;20171;-88
2023/05/26 14:20:21;;;;;;;4.10;2.47;;;;;;;25.39;56.85;98805.63;5113548;28;20189;-89
2023/05/26 14:22:48;;;;;;;3.33;1.83;;;;;;;25.32;57.04;98808.19;5113778;28;20230;-89
2023/05/26 14:25:14;;;;;;;5.67;2.13;;;;;;;25.33;58.12;98804.50;5113403;28;20584;-88
2023/05/26 14:27:39;;;;;;;5.03;2.13;;;;;;;25.27;59.28;98799.88;5113370;28;20187;-88
2023/05/26 14:30:09;;;;;;;4.90;2.23;;;;;;;25.30;58.62;98799.50;5113469;28;20203;-88
2023/05/26 14:32:34;;;;;;;4.33;1.80;;;;;;;25.22;57.25;98794.22;5113739;28;20172;-87
2023/05/26 14:34:59;;;;;;;2.37;1.40;;;;;;;25.12;57.32;98782.91;5112334;28;20182;-88
2023/05/26 14:37:27;;;;;;;2.40;1.40;;;;;;;25.08;58.10;98786.16;5112467;28;20303;-88
2023/05/26 14:39:53;;;;;;;4.40;1.80;;;;;;;25.03;58.51;98784.81;5113610;28;20171;-88
2023/05/26 14:42:19;;;;;;;3.40;1.60;;;;;;;25.00;59.09;98787.84;5113660;28;20175;-88
2023/05/26 14:44:44;;;;;;;3.47;1.53;;;;;;;24.99;60.18;98786.22;5113186;28;20258;-89
2023/05/26 14:47:10;;;;;;;6.73;1.40;;;;;;;24.94;62.61;98788.59;5113614;28;20171;-89
2023/05/26 14:49:37;;;;;;;4.93;1.80;;;;;;;24.99;63.09;98785.38;5113315;28;20673;-88
2023/05/26 14:52:03;;;;;;;3.43;1.80;;;;;;;25.07;62.40;98782.63;5113284;28;20209;-89
2023/05/26 14:54:28;;;;;;;5.80;2.40;;;;;;;25.04;62.97;98773.09;5112870;28;20660;-88
2023/05/26 14:56:54;;;;;;;3.83;1.77;;;;;;;25.02;64.03;98779.66;5113202;28;20180;-88
2023/05/26 14:59:20;;;;;;;5.30;2.00;;;;;;;25.05;64.38;98781.97;5113753;28;20179;-88
2023/05/26 15:01:45;;;;;;;4.17;1.90;;;;;;;25.04;65.08;98791.03;5117160;28;20180;-88
2023/05/26 15:04:10;;;;;;;4.07;1.87;;;;;;;25.02;63.51;98787.69;5116983;28;20618;-88
2023/05/26 15:06:38;;;;;;;3.20;1.43;;;;;;;25.15;60.68;98789.75;5116958;28;20180;-88
2023/05/26 15:09:07;;;;;;;2.53;1.50;;;;;;;25.21;59.59;98792.53;5116956;28;20180;-87
2023/05/26 15:11:33;;;;;;;3.90;1.77;;;;;;;25.18;59.29;98800.13;5115913;28;20538;-87
2023/05/26 15:13:59;;;;;;;3.43;1.60;;;;;;;25.17;59.87;98801.13;5116768;28;20196;-88
2023/05/26 15:16:25;;;;;;;4.50;2.87;;;;;;;25.22;60.04;98796.06;5116155;28;20194;-88
2023/05/26 15:18:50;;;;;;;5.63;2.70;;;;;;;25.13;61.08;98797.16;5116768;28;20675;-88
2023/05/26 15:21:15;;;;;;;6.43;3.03;;;;;;;25.15;61.20;98803.16;5097801;28;20249;-88
2023/05/26 15:23:41;;;;;;;7.50;2.83;;;;;;;25.14;62.86;98794.28;5096156;28;20651;-87
2023/05/26 15:26:07;;;;;;;5.73;2.70;;;;;;;25.11;63.70;98799.16;5096489;28;20177;-88
2023/05/26 15:28:32;;;;;;;3.30;1.70;;;;;;;25.12;64.70;98800.84;5096451;28;20641;-88
2023/05/26 15:30:58;;;;;;;4.57;2.10;;;;;;;25.10;64.27;98798.34;5096015;28;20267;-87
2023/05/26 15:33:23;;;;;;;3.83;1.90;;;;;;;25.05;64.71;98812.28;5096137;28;20533;-88
2023/05/26 15:35:50;;;;;;;4.67;1.53;;;;;;;25.09;64.67;98803.88;5095063;28;20191;-88
2023/05/26 15:38:16;;;;;;;4.27;1.60;;;;;;;25.07;64.36;98804.06;5109311;28;20180;-88
2023/05/26 15:40:42;;;;;;;2.97;1.50;;;;;;;25.05;63.99;98795.38;5109061;28;20179;-87
2023/05/26 15:43:08;;;;;;;5.57;1.60;;;;;;;25.09;64.27;98787.78;5096157;28;20605;-88
2023/05/26 15:45:33;;;;;;;5.35;1.90;;;;;;;25.09;64.27;98788.63;5095238;28;20187;-88
2023/05/26 15:47:58;;;;;;;6.53;1.80;;;;;;;25.08;64.17;98795.00;5094875;28;20184;-87
2023/05/26 15:50:24;;;;;;;3.77;1.77;;;;;;;25.15;63.58;98792.44;5094741;28;20184;-87
2023/05/26 15:52:50;;;;;;;2.40;1.20;;;;;;;25.13;63.92;98787.25;5095971;28;20195;-87
2023/05/26 15:55:16;;;;;;;5.20;1.50;;;;;;;25.14;64.12;98785.41;5095666;28;20275;-88
2023/05/26 15:57:41;;;;;;;2.47;1.50;;;;;;;25.15;64.68;98795.13;5095627;28;20259;-88
2023/05/26 16:00:09;;;;;;;5.17;1.50;;;;;;;25.14;64.05;98799.66;5094958;28;20245;-87
2023/05/26 16:02:35;;;;;;;2.97;1.83;;;;;;;25.14;64.05;98798.81;5094646;28;20182;-88
2023/05/26 16:05:00;;;;;;;3.97;2.17;;;;;;;25.33;62.86;98804.50;5107351;28;20179;-88
2023/05/26 16:07:26;;;;;;;3.87;2.00;;;;;;;25.35;61.02;98809.69;5115873;28;20179;-88
2023/05/26 16:09:51;;;;;;;3.13;1.70;;;;;;;25.35;61.20;98807.00;5115836;28;20176;-88
2023/05/26 16:12:17;;;;;;;3.83;1.90;;;;;;;25.35;60.85;98801.63;5114629;28;20187;-87
2023/05/26 16:14:42;;;;;;;4.53;1.63;;;;;;;25.31;60.82;98794.97;5115530;28;20203;-88
2023/05/26 16:17:07;;;;;;;3.20;1.87;;;;;;;25.32;60.84;98799.31;5114709;28;20184;-87
2023/05/26 16:19:33;;;;;;;4.87;1.80;;;;;;;25.24;60.77;98796.69;5114981;28;20180;-87
2023/05/26 16:21:58;;;;;;;5.97;1.57;;;;;;;25.14;61.57;98798.81;5114913;28;20327;-87
2023/05/26 16:24:28;;;;;;;3.40;1.50;;;;;;;25.15;61.75;98801.34;5114494;28;20332;-87
2023/05/26 16:26:54;;;;;;;3.30;1.80;;;;;;;25.12;62.16;98803.53;5114788;28;20634;-87
2023/05/26 16:29:20;;;;;;;4.77;1.70;;;;;;;25.05;62.62;98803.44;5114495;28;20270;-87
2023/05/26 16:31:46;;;;;;;2.90;1.63;;;;;;;24.94;63.11;98809.22;5114439;28;20650;-87
2023/05/26 16:34:12;;;;;;;4.63;1.90;;;;;;;24.90;63.44;98805.22;5113866;28;20682;-87
2023/05/26 16:36:38;;;;;;;3.07;1.67;;;;;;;24.85;63.36;98800.38;5114233;28;20213;-87
2023/05/26 16:39:03;;;;;;;3.53;1.80;;;;;;;24.85;63.47;98803.06;5114305;28;20171;-87
2023/05/26 16:41:29;;;;;;;3.97;1.80;;;;;;;24.77;63.26;98804.94;5114474;28;20180;-87
2023/05/26 16:43:54;;;;;;;2.53;1.90;;;;;;;24.70;63.87;98807.50;5115078;28;20180;-87
2023/05/26 16:46:20;;;;;;;3.33;1.60;;;;;;;24.67;63.90;98805.19;5114113;28;20194;-87
2023/05/26 16:48:46;;;;;;;7.83;2.10;;;;;;;24.66;63.90;98806.19;5115184;28;20184;-87
2023/05/26 16:51:11;;;;;;;4.93;2.60;;;;;;;24.68;63.53;98801.50;5115322;28;20168;-88
2023/05/26 16:53:36;;;;;;;3.67;2.07;;;;;;;24.61;64.02;98803.19;5102328;28;20189;-87
2023/05/26 16:56:02;;;;;;;4.17;2.50;;;;;;;24.49;63.40;98799.25;5094517;28;20180;-86
2023/05/26 16:58:27;;;;;;;4.53;2.27;;;;;;;24.30;64.06;98799.69;5093838;28;20280;-87
2023/05/26 17:00:53;;;;;;;5.60;2.23;;;;;;;24.06;64.20;98792.59;5093471;28;20180;-86
2023/05/26 17:03:18;;;;;;;5.60;2.23;;;;;;;23.90;65.18;98781.13;5093392;28;20250;-87
2023/05/26 17:05:44;;;;;;;4.77;2.60;;;;;;;23.83;65.49;98792.50;5094350;28;20180;-86
2023/05/26 17:08:09;;;;;;;6.67;2.63;;;;;;;23.70;65.89;98797.56;5093291;28;20214;-87
2023/05/26 17:10:35;;;;;;;8.07;2.80;;;;;;;23.62;66.29;98810.97;5093604;28;20180;-86
2023/05/26 17:13:00;;;;;;;4.87;2.70;;;;;;;23.54;66.81;98807.47;5094116;28;20724;-86
2023/05/26 17:15:26;;;;;;;4.97;2.40;;;;;;;23.51;66.59;98811.31;5104117;28;20184;-86
2023/05/26 17:17:51;;;;;;;6.53;2.60;;;;;;;23.49;66.68;98805.31;5113557;28;20266;-86
2023/05/26 17:20:17;;;;;;;4.57;2.50;;;;;;;23.49;66.51;98813.34;5114359;28;20168;-86
2023/05/26 17:22:42;;;;;;;4.63;2.27;;;;;;;23.53;66.08;98817.34;5112881;28;20286;-86
2023/05/26 17:25:09;;;;;;;6.60;2.27;;;;;;;23.45;66.91;98812.03;5114567;28;20198;-86
2023/05/26 17:27:35;;;;;;;5.60;2.90;;;;;;;23.47;67.40;98807.34;5114326;27;20167;-86
2023/05/26 17:30:00;;;;;;;6.87;2.70;;;;;;;23.46;67.02;98807.50;5113308;28;20311;-86
2023/05/26 17:32:25;;;;;;;4.13;2.20;;;;;;;23.46;66.75;98811.00;5112949;28;20216;-86
2023/05/26 17:34:51;;;;;;;5.03;3.07;;;;;;;23.49;66.69;98804.47;5113479;28;20199;-87
2023/05/26 17:37:16;;;;;;;6.97;3.10;;;;;;;23.48;66.61;98809.00;5113165;28;20541;-86
2023/05/26 17:39:42;;;;;;;6.77;2.63;;;;;;;23.46;66.63;98815.50;5114060;28;20179;-87
2023/05/26 17:42:08;;;;;;;4.53;2.27;;;;;;;23.38;66.90;98813.69;5113418;28;20572;-86
2023/05/26 17:44:34;;;;;;;5.10;2.43;;;;;;;23.37;67.25;98817.38;5113077;28;20171;-86
2023/05/26 17:46:59;;;;;;;4.20;3.03;;;;;;;23.37;67.12;98821.91;5114047;28;20174;-86
2023/05/26 17:49:24;;;;;;;3.83;2.43;;;;;;;23.33;66.92;98824.03;5112853;28;20542;-87
2023/05/26 17:51:50;;;;;;;5.37;3.33;;;;;;;23.19;67.34;98825.53;5113288;28;20195;-86
2023/05/26 17:54:15;;;;;;;4.90;2.77;;;;;;;23.13;67.99;98830.72;5112859;28;20579;-86
2023/05/26 17:56:41;;;;;;;3.53;2.33;;;;;;;23.19;67.95;98843.44;5113877;28;20164;-87
2023/05/26 17:59:06;;;;;;;6.17;3.20;;;;;;;23.14;67.59;98835.06;5098657;28;20192;-86
2023/05/26 18:01:32;;;;;;;4.70;2.73;;;;;;;23.13;67.48;98838.75;5092481;28;20176;-86
2023/05/26 18:03:57;;;;;;;3.67;2.50;;;;;;;23.15;67.50;98839.41;5092838;28;20165;-86
2023/05/26 18:06:23;;;;;;;8.70;2.83;;;;;;;23.17;67.60;98842.75;5093052;28;20533;-86
2023/05/26 18:08:48;;;;;;;6.70;2.80;;;;;;;23.29;66.61;98840.59;5093363;28;20672;-87
2023/05/26 18:11:13;;;;;;;6.03;2.60;;;;;;;23.20;66.26;98837.06;5092825;28;20184;-86
2023/05/26 18:13:39;;;;;;;7.00;3.00;;;;;;;23.11;66.48;98843.44;5092555;28;20203;-86
2023/05/26 18:16:05;;;;;;;4.77;2.43;;;;;;;23.01;67.00;98842.75;5093249;28;20172;-87
2023/05/26 18:18:30;;;;;;;4.77;2.87;;;;;;;23.01;67.09;98848.09;5092256;28;20271;-86
2023/05/26 18:20:56;;;;;;;4.83;2.53;;;;;;;23.03;67.33;98863.00;5092202;28;20271;-87
2023/05/26 18:23:21;;;;;;;5.97;3.03;;;;;;;22.98;66.85;98859.13;5092448;28;20192;-87
2023/05/26 18:25:47;;;;;;;7.20;2.80;;;;;;;22.91;66.84;98858.09;5092251;28;20206;-86
2023/05/26 18:28:13;;;;;;;5.73;2.90;;;;;;;22.88;66.96;98850.41;5098442;28;20233;-87
2023/05/26 18:30:38;;;;;;;3.53;2.10;;;;;;;22.78;67.70;98863.09;5114132;28;20194;-86
2023/05/26 18:33:04;;;;;;;4.57;2.30;;;;;;;22.76;67.28;98855.25;5113668;28;20172;-86
2023/05/26 18:35:29;;;;;;;3.80;2.07;;;;;;;22.63;67.61;98850.38;5115737;28;20180;-86
2023/05/26 18:37:56;;;;;;;7.33;3.40;;;;;;;22.57;67.45;98851.00;5116943;28;20175;-86
2023/05/26 18:40:21;;;;;;;3.70;2.30;;;;;;;22.47;67.83;98855.66;5116279;28;20179;-86
2023/05/26 18:42:47;;;;;;;7.67;2.90;;;;;;;22.40;67.69;98856.47;5116807;28;20171;-86
2023/05/26 18:45:13;;;;;;;9.13;2.97;;;;;;;22.37;67.73;98859.47;5117764;28;20176;-86
2023/05/26 18:47:43;;;;;;;4.27;2.47;;;;;;;22.39;68.16;98860.97;5116232;28;20625;-86
2023/05/26 18:50:09;;;;;;;4.27;2.37;;;;;;;22.43;67.43;98853.47;5117399;28;20164;-86
2023/05/26 18:52:39;;;;;;;6.10;2.40;;;;;;;22.53;65.84;98855.00;5116627;28;20171;-86
2023/05/26 18:55:05;;;;;;;4.47;2.13;;;;;;;22.55;65.31;98854.84;5117198;28;20198;-86
2023/05/26 18:57:31;;;;;;;6.57;2.77;;;;;;;22.50;65.09;98855.34;5117315;28;20180;-86
2023/05/26 18:59:57;;;;;;;4.13;2.17;;;;;;;22.47;65.07;98850.31;5117046;28;20225;-86
2023/05/26 19:02:22;;;;;;;6.83;3.10;;;;;;;22.36;65.65;98858.63;5116092;28;20622;-87
2023/05/26 19:04:48;;;;;;;7.13;2.83;;;;;;;22.40;65.30;98868.00;5116556;28;20171;-87
2023/05/26 19:07:14;;;;;;;11.13;3.47;;;;;;;22.33;65.37;98872.28;5117047;27;20183;-87
2023/05/26 19:09:39;;;;;;;4.43;2.77;;;;;;;22.23;65.48;98876.91;5116971;28;20714;-87
2023/05/26 19:12:05;;;;;;;5.57;3.00;;;;;;;22.16;66.06;98878.56;5116912;28;20168;-87
2023/05/26 19:14:31;;;;;;;6.03;3.33;;;;;;;22.05;66.12;98878.84;5115792;28;20678;-87
2023/05/26 19:16:56;;;;;;;12.23;4.27;;;;;;;21.97;66.25;98873.44;5115897;28;20175;-86
2023/05/26 19:19:21;;;;;;;7.43;3.10;;;;;;;21.92;65.88;98879.28;5116440;28;20172;-87
2023/05/26 19:21:47;;;;;;;7.03;3.40;;;;;;;21.86;66.36;98874.56;5116288;28;20179;-86
2023/05/26 19:24:13;;;;;;;5.90;3.17;;;;;;;21.80;66.54;98877.81;5115862;28;20202;-86
2023/05/26 19:26:39;;;;;;;4.60;2.67;;;;;;;21.83;66.31;98874.84;5116052;28;20176;-86
2023/05/26 19:29:05;;;;;;;4.33;2.67;;;;;;;21.79;65.79;98876.16;5116578;28;20187;-85
2023/05/26 19:31:32;;;;;;;3.30;2.07;;;;;;;21.75;66.24;98869.44;5115533;28;20175;-86
2023/05/26 19:33:58;;;;;;;4.67;2.60;;;;;;;21.76;65.78;98870.28;5115591;28;20187;-86
2023/05/26 19:36:27;;;;;;;6.40;2.50;;;;;;;21.67;65.75;98866.72;5115568;28;20549;-86
2023/05/26 19:38:52;;;;;;;7.23;2.40;;;;;;;21.66;65.87;98875.75;5116252;28;20175;-86
2023/05/26 19:41:18;;;;;;;4.33;2.03;;;;;;;21.59;66.52;98872.03;5116373;28;20175;-86
2023/05/26 19:43:43;;;;;;;3.23;1.87;;;;;;;21.55;66.57;98869.81;5115254;28;20186;-87
2023/05/26 19:46:09;;;;;;;4.53;1.70;;;;;;;21.50;67.13;98870.28;5115870;28;20178;-86
2023/05/26 19:48:35;;;;;;;8.07;2.47;;;;;;;21.49;67.19;98868.59;5115594;28;20171;-86
2023/05/26 19:51:01;;;;;;;4.20;2.37;;;;;;;21.47;67.21;98867.09;5115945;28;20247;-86
2023/05/26 19:53:27;;;;;;;4.83;2.60;;;;;;;21.39;67.88;98862.53;5116651;28;20188;-86
2023/05/26 19:55:53;;;;;;;3.40;2.10;;;;;;;21.36;68.69;98854.84;5116443;28;20240;-86
2023/05/26 19:58:19;;;;;;;6.20;2.47;;;;;;;21.35;68.99;98854.03;5115221;28;20560;-86
2023/05/26 20:00:48;;;;;;;3.97;2.07;;;;;;;21.38;69.11;98851.03;5116000;28;20172;-85
2023/05/26 20:03:14;;;;;;;8.80;2.33;;;;;;;21.35;69.38;98846.03;5115682;28;20649;-86
2023/05/26 20:05:41;;;;;;;5.80;2.77;;;;;;;21.23;70.00;98849.91;5115932;28;20168;-86
2023/05/26 20:08:06;;;;;;;4.97;2.03;;;;;;;21.19;70.13;98861.06;5116192;28;20180;-86
2023/05/26 20:10:32;;;;;;;5.57;2.60;;;;;;;21.07;71.01;98857.78;5114881;28;20228;-86
2023/05/26 20:12:57;;;;;;;5.40;2.63;;;;;;;21.07;71.55;98857.78;5114611;28;20180;-86
2023/05/26 20:15:23;;;;;;;7.80;2.37;;;;;;;21.11;71.94;98880.47;5115126;28;20618;-86
2023/05/26 20:17:49;;;;;;;5.80;3.03;;;;;;;20.95;71.75;98890.13;5115335;28;20296;-86
2023/05/26 20:20:14;;;;;;;10.40;3.13;;;;;;;20.74;72.04;98871.75;5116211;28;20279;-86
2023/05/26 20:22:40;;;;;;;6.73;3.17;;;;;;;20.68;72.10;98867.03;5115618;28;20201;-86
2023/05/26 20:25:06;;;;;;;10.03;4.50;;;;;;;20.76;72.54;98864.44;5116270;28;20253;-86
2023/05/26 20:27:31;;;;;;;4.83;2.80;;;;;;;20.70;72.04;98859.75;5114813;28;20177;-86
2023/05/26 20:29:57;;;;;;;5.13;3.20;;;;;;;20.65;73.03;98872.69;5114844;28;20239;-85
2023/05/26 20:32:23;;;;;;;8.77;3.07;;;;;;;20.64;73.41;98874.50;5115431;28;20176;-86
2023/05/26 20:34:49;;;;;;;6.33;3.00;;;;;;;20.51;73.73;98870.50;5114315;28;20203;-87
2023/05/26 20:37:15;;;;;;;8.53;3.37;;;;;;;20.34;74.46;98860.66;5115291;28;20179;-87
2023/05/26 20:39:43;;;;;;;6.67;3.40;;;;;;;20.33;75.10;98869.63;5115800;28;20178;-86
2023/05/26 20:42:08;;;;;;;8.47;3.70;;;;;;;20.35;75.37;98870.31;5115234;28;20167;-86
2023/05/26 20:44:34;;;;;;;4.63;2.80;;;;;;;20.23;75.24;98859.88;5114029;28;20172;-86
2023/05/26 20:47:00;;;;;;;7.20;3.07;;;;;;;20.32;75.05;98859.97;5114152;28;20197;-85
2023/05/26 20:49:25;;;;;;;5.73;2.87;;;;;;;20.30;74.95;98862.78;5106809;28;20618;-86
2023/05/26 20:51:52;;;;;;;4.53;2.83;;;;;;;20.14;75.90;98860.72;5093968;28;20180;-86
2023/05/26 20:54:17;;;;;;;4.57;3.20;;;;;;;20.15;75.68;98859.72;5094443;28;20705;-86
2023/05/26 20:56:43;;;;;;;6.57;3.00;;;;;;;20.03;76.46;98852.94;5108170;28;20196;-86
2023/05/26 20:59:08;;;;;;;14.80;3.50;;;;;;;19.96;77.26;98859.00;5113437;28;20176;-86
2023/05/26 21:01:34;;;;;;;5.10;2.87;;;;;;;20.02;76.97;98859.22;5114003;28;20240;-86
2023/05/26 21:03:59;;;;;;;4.50;2.43;;;;;;;19.96;77.22;98859.84;5115087;28;20629;-86
2023/05/26 21:06:25;;;;;;;9.87;3.10;;;;;;;19.96;77.28;98859.84;5111769;28;20180;-87
2023/05/26 21:08:51;;;;;;;7.73;3.70;;;;;;;20.10;77.46;98856.69;5093613;28;20590;-86
2023/05/26 21:11:16;;;;;;;7.90;3.37;;;;;;;20.08;77.00;98863.97;5094555;28;20661;-86
2023/05/26 21:13:41;;;;;;;6.30;3.20;;;;;;;20.03;77.59;98863.56;5093181;28;20200;-86
2023/05/26 21:16:07;;;;;;;4.80;2.87;;;;;;;20.08;77.12;98866.63;5094172;28;20222;-86
2023/05/26 21:18:32;;;;;;;4.90;3.00;;;;;;;20.23;76.25;98867.84;5105682;28;20191;-86
2023/05/26 21:20:58;;;;;;;4.33;2.43;;;;;;;20.29;75.90;98861.09;5113484;28;20179;-86
2023/05/26 21:23:23;;;;;;;5.03;3.07;;;;;;;20.30;75.56;98867.25;5113880;28;20194;-85
2023/05/26 21:25:49;;;;;;;7.47;2.83;;;;;;;20.35;75.53;98862.34;5114403;28;20639;-86
2023/05/26 21:28:14;;;;;;;7.37;3.53;;;;;;;20.34;74.79;98871.28;5113693;28;20183;-86
2023/05/26 21:30:40;;;;;;;4.13;2.20;;;;;;;20.29;75.28;98873.56;5114297;28;20168;-86
2023/05/26 21:33:05;;;;;;;4.87;2.40;;;;;;;20.37;74.95;98868.34;5114503;28;20536;-85
2023/05/26 21:35:31;;;;;;;7.07;3.33;;;;;;;20.39;74.60;98871.72;5113811;28;20267;-86
2023/05/26 21:37:56;;;;;;;10.43;3.47;;;;;;;20.38;74.95;98862.03;5113107;28;20180;-85
2023/05/26 21:40:22;;;;;;;5.93;3.07;;;;;;;20.51;74.78;98873.19;5114426;28;20220;-86
2023/05/26 21:42:47;;;;;;;11.40;3.07;;;;;;;20.59;74.22;98876.78;5113163;28;20183;-85
2023/05/26 21:45:13;;;;;;;10.30;3.10;;;;;;;20.63;73.60;98879.94;5113842;28;20185;-86
2023/05/26 21:47:38;;;;;;;8.60;2.80;;;;;;;20.62;73.81;98872.97;5113074;28;20630;-86
2023/05/26 21:50:04;;;;;;;5.17;2.93;;;;;;;20.65;73.78;98872.69;5114007;28;20235;-86
2023/05/26 21:52:30;;;;;;;8.13;3.00;;;;;;;20.73;73.60;98870.06;5112947;28;20209;-86
2023/05/26 21:54:55;;;;;;;6.77;3.23;;;;;;;20.74;73.47;98872.59;5113780;28;20757;-86
2023/05/26 21:57:21;;;;;;;6.47;3.07;;;;;;;20.75;73.01;98873.44;5112991;28;20175;-86
2023/05/26 21:59:46;;;;;;;4.50;2.73;;;;;;;20.78;72.61;98870.44;5113955;28;20167;-86
2023/05/26 22:02:12;;;;;;;5.23;2.97;;;;;;;20.79;73.03;98861.47;5113502;28;20172;-85
2023/05/26 22:04:37;;;;;;;5.83;3.10;;;;;;;20.83;72.84;98861.03;5112814;28;20163;-86
2023/05/26 22:07:02;;;;;;;7.90;3.07;;;;;;;20.89;72.10;98856.91;5113119;28;20171;-86
2023/05/26 22:09:28;;;;;;;6.40;2.90;;;;;;;20.90;71.59;98855.94;5112863;28;20183;-86
2023/05/26 22:11:53;;;;;;;5.87;2.80;;;;;;;20.89;71.73;98854.25;5114121;28;20183;-86
2023/05/26 22:14:19;;;;;;;6.83;3.37;;;;;;;20.90;71.56;98849.75;5112614;28;20199;-86
2023/05/26 22:16:44;;;;;;;4.70;2.73;;;;;;;20.89;71.64;98848.91;5113644;28;20261;-86
2023/05/26 22:19:10;;;;;;;6.50;2.83;;;;;;;20.95;71.59;98850.13;5113507;28;20275;-85
2023/05/26 22:21:35;;;;;;;8.73;3.77;;;;;;;21.00;71.16;98847.84;5114058;28;20172;-86
2023/05/26 22:24:01;;;;;;;7.97;2.70;;;;;;;21.00;71.38;98846.03;5095209;28;20191;-85
2023/05/26 22:26:27;;;;;;;4.87;2.83;;;;;;;21.07;70.79;98846.31;5093475;28;20180;-86
2023/05/26 22:28:52;;;;;;;4.07;2.40;;;;;;;21.12;70.45;98844.81;5092490;28;20672;-86